sensor_id;sensor_type;location;lat;lon;timestamp;P1;durP1;ratioP1;P2;durP2;ratioP2
71484;SDS011;59300;52.074;4.758;2022-09-09T00:01:35;9.57;;;5.63;;
71484;SDS011;59300;52.074;4.758;2022-09-09T00:04:38;7.95;;;5.68;;
71484;SDS011;59300;52.074;4.758;2022-09-09T00:07:43;9.05;;;6.13;;
71484;SDS011;59300;52.074;4.758;2022-09-09T00:10:52;9.80;;;6.80;;
71484;SDS011;59300;52.074;4.758;2022-09-09T00:14:00;10.55;;;7.70;;
71484;SDS011;59300;52.074;4.758;2022-09-09T00:17:12;11.20;;;7.15;;
71484;SDS011;59300;52.074;4.758;2022-09-09T00:23:35;11.02;;;8.27;;
71484;SDS011;59300;52.074;4.758;2022-09-09T00:26:47;16.23;;;8.82;;
71484;SDS011;59300;52.074;4.758;2022-09-09T00:29:54;14.05;;;8.95;;
71484;SDS011;59300;52.074;4.758;2022-09-09T00:33:16;11.35;;;8.50;;
71484;SDS011;59300;52.074;4.758;2022-09-09T00:36:21;13.55;;;9.98;;
71484;SDS011;59300;52.074;4.758;2022-09-09T00:39:32;11.93;;;9.00;;
71484;SDS011;59300;52.074;4.758;2022-09-09T00:42:43;12.68;;;8.70;;
71484;SDS011;59300;52.074;4.758;2022-09-09T00:45:55;14.52;;;8.63;;
71484;SDS011;59300;52.074;4.758;2022-09-09T00:56:20;17.33;;;10.43;;
71484;SDS011;59300;52.074;4.758;2022-09-09T01:06:16;17.17;;;10.40;;
71484;SDS011;59300;52.074;4.758;2022-09-09T01:09:29;15.38;;;10.93;;
71484;SDS011;59300;52.074;4.758;2022-09-09T01:12:44;17.80;;;11.10;;
71484;SDS011;59300;52.074;4.758;2022-09-09T01:15:53;17.25;;;11.48;;
71484;SDS011;59300;52.074;4.758;2022-09-09T01:19:03;16.63;;;11.30;;
71484;SDS011;59300;52.074;4.758;2022-09-09T01:22:17;19.85;;;11.32;;
71484;SDS011;59300;52.074;4.758;2022-09-09T01:29:35;15.90;;;10.88;;
71484;SDS011;59300;52.074;4.758;2022-09-09T01:32:40;15.10;;;10.25;;
71484;SDS011;59300;52.074;4.758;2022-09-09T01:35:59;16.17;;;11.88;;
71484;SDS011;59300;52.074;4.758;2022-09-09T01:39:12;14.55;;;10.55;;
71484;SDS011;59300;52.074;4.758;2022-09-09T01:42:16;14.43;;;10.30;;
71484;SDS011;59300;52.074;4.758;2022-09-09T01:45:19;14.15;;;9.85;;
71484;SDS011;59300;52.074;4.758;2022-09-09T01:48:23;15.25;;;9.35;;
71484;SDS011;59300;52.074;4.758;2022-09-09T01:51:36;16.73;;;9.30;;
71484;SDS011;59300;52.074;4.758;2022-09-09T01:54:42;13.45;;;9.40;;
71484;SDS011;59300;52.074;4.758;2022-09-09T01:58:01;11.98;;;8.82;;
71484;SDS011;59300;52.074;4.758;2022-09-09T02:01:27;14.18;;;8.98;;
71484;SDS011;59300;52.074;4.758;2022-09-09T02:08:20;12.32;;;9.10;;
71484;SDS011;59300;52.074;4.758;2022-09-09T02:11:37;14.10;;;8.70;;
71484;SDS011;59300;52.074;4.758;2022-09-09T02:14:49;13.68;;;9.48;;
71484;SDS011;59300;52.074;4.758;2022-09-09T02:17:57;14.60;;;9.82;;
71484;SDS011;59300;52.074;4.758;2022-09-09T02:21:02;18.45;;;9.50;;
71484;SDS011;59300;52.074;4.758;2022-09-09T02:24:06;14.60;;;9.70;;
71484;SDS011;59300;52.074;4.758;2022-09-09T02:27:12;15.40;;;9.30;;
71484;SDS011;59300;52.074;4.758;2022-09-09T02:33:26;15.90;;;10.85;;
71484;SDS011;59300;52.074;4.758;2022-09-09T02:36:32;15.45;;;10.68;;
71484;SDS011;59300;52.074;4.758;2022-09-09T02:39:35;16.38;;;11.27;;
71484;SDS011;59300;52.074;4.758;2022-09-09T02:45:59;20.30;;;12.30;;
71484;SDS011;59300;52.074;4.758;2022-09-09T02:56:23;23.60;;;13.20;;
71484;SDS011;59300;52.074;4.758;2022-09-09T02:59:32;23.17;;;13.25;;
71484;SDS011;59300;52.074;4.758;2022-09-09T03:02:35;21.52;;;13.18;;
71484;SDS011;59300;52.074;4.758;2022-09-09T03:05:40;22.15;;;12.43;;
71484;SDS011;59300;52.074;4.758;2022-09-09T03:08:44;22.58;;;13.18;;
71484;SDS011;59300;52.074;4.758;2022-09-09T03:11:52;26.40;;;13.40;;
71484;SDS011;59300;52.074;4.758;2022-09-09T03:14:55;21.33;;;12.43;;
71484;SDS011;59300;52.074;4.758;2022-09-09T03:17:58;22.43;;;12.40;;
71484;SDS011;59300;52.074;4.758;2022-09-09T03:21:01;19.50;;;11.32;;
71484;SDS011;59300;52.074;4.758;2022-09-09T03:24:04;23.10;;;11.23;;
71484;SDS011;59300;52.074;4.758;2022-09-09T03:27:06;19.00;;;11.02;;
71484;SDS011;59300;52.074;4.758;2022-09-09T03:30:11;20.20;;;11.63;;
71484;SDS011;59300;52.074;4.758;2022-09-09T03:33:13;23.65;;;13.00;;
71484;SDS011;59300;52.074;4.758;2022-09-09T03:36:15;21.35;;;12.27;;
71484;SDS011;59300;52.074;4.758;2022-09-09T03:39:17;24.10;;;11.70;;
71484;SDS011;59300;52.074;4.758;2022-09-09T03:42:19;22.45;;;12.43;;
71484;SDS011;59300;52.074;4.758;2022-09-09T03:45:25;21.58;;;12.35;;
71484;SDS011;59300;52.074;4.758;2022-09-09T03:48:27;23.13;;;12.65;;
71484;SDS011;59300;52.074;4.758;2022-09-09T03:51:30;20.00;;;12.73;;
71484;SDS011;59300;52.074;4.758;2022-09-09T03:54:33;23.55;;;12.18;;
71484;SDS011;59300;52.074;4.758;2022-09-09T03:57:35;21.10;;;12.10;;
71484;SDS011;59300;52.074;4.758;2022-09-09T04:00:40;21.27;;;12.00;;
71484;SDS011;59300;52.074;4.758;2022-09-09T04:03:42;26.42;;;12.98;;
71484;SDS011;59300;52.074;4.758;2022-09-09T04:06:44;18.77;;;11.35;;
71484;SDS011;59300;52.074;4.758;2022-09-09T04:09:46;23.98;;;12.48;;
71484;SDS011;59300;52.074;4.758;2022-09-09T04:12:49;19.98;;;10.95;;
71484;SDS011;59300;52.074;4.758;2022-09-09T04:15:52;20.75;;;11.80;;
71484;SDS011;59300;52.074;4.758;2022-09-09T04:18:55;21.15;;;11.65;;
71484;SDS011;59300;52.074;4.758;2022-09-09T04:21:57;19.30;;;10.68;;
71484;SDS011;59300;52.074;4.758;2022-09-09T04:24:59;17.63;;;11.05;;
71484;SDS011;59300;52.074;4.758;2022-09-09T04:28:03;19.15;;;10.35;;
71484;SDS011;59300;52.074;4.758;2022-09-09T04:31:06;21.65;;;10.50;;
71484;SDS011;59300;52.074;4.758;2022-09-09T04:34:10;17.95;;;9.82;;
71484;SDS011;59300;52.074;4.758;2022-09-09T04:37:13;16.73;;;10.00;;
71484;SDS011;59300;52.074;4.758;2022-09-09T04:40:15;20.35;;;10.05;;
71484;SDS011;59300;52.074;4.758;2022-09-09T04:43:18;18.90;;;10.23;;
71484;SDS011;59300;52.074;4.758;2022-09-09T04:46:22;19.08;;;9.90;;
71484;SDS011;59300;52.074;4.758;2022-09-09T04:49:24;18.80;;;9.75;;
71484;SDS011;59300;52.074;4.758;2022-09-09T04:52:27;22.83;;;10.35;;
71484;SDS011;59300;52.074;4.758;2022-09-09T04:55:29;14.30;;;9.60;;
71484;SDS011;59300;52.074;4.758;2022-09-09T04:58:31;18.60;;;9.70;;
71484;SDS011;59300;52.074;4.758;2022-09-09T05:01:33;16.15;;;9.35;;
71484;SDS011;59300;52.074;4.758;2022-09-09T05:04:38;14.90;;;8.77;;
71484;SDS011;59300;52.074;4.758;2022-09-09T05:07:40;15.20;;;8.98;;
71484;SDS011;59300;52.074;4.758;2022-09-09T05:10:42;13.63;;;8.18;;
71484;SDS011;59300;52.074;4.758;2022-09-09T05:13:46;17.35;;;8.43;;
71484;SDS011;59300;52.074;4.758;2022-09-09T05:16:49;14.80;;;7.87;;
71484;SDS011;59300;52.074;4.758;2022-09-09T05:19:51;18.17;;;8.10;;
71484;SDS011;59300;52.074;4.758;2022-09-09T05:22:54;12.93;;;7.05;;
71484;SDS011;59300;52.074;4.758;2022-09-09T05:25:59;15.95;;;7.68;;
71484;SDS011;59300;52.074;4.758;2022-09-09T05:29:03;15.90;;;7.38;;
71484;SDS011;59300;52.074;4.758;2022-09-09T05:32:05;13.10;;;6.82;;
71484;SDS011;59300;52.074;4.758;2022-09-09T05:35:09;13.48;;;6.60;;
71484;SDS011;59300;52.074;4.758;2022-09-09T05:38:13;12.60;;;5.90;;
71484;SDS011;59300;52.074;4.758;2022-09-09T05:41:15;13.90;;;5.93;;
71484;SDS011;59300;52.074;4.758;2022-09-09T05:44:19;15.02;;;6.40;;
71484;SDS011;59300;52.074;4.758;2022-09-09T05:47:21;16.92;;;6.47;;
71484;SDS011;59300;52.074;4.758;2022-09-09T05:50:23;13.00;;;5.78;;
71484;SDS011;59300;52.074;4.758;2022-09-09T05:53:32;12.45;;;6.05;;
71484;SDS011;59300;52.074;4.758;2022-09-09T05:56:34;12.90;;;5.65;;
71484;SDS011;59300;52.074;4.758;2022-09-09T05:59:37;12.27;;;5.55;;
71484;SDS011;59300;52.074;4.758;2022-09-09T06:02:39;10.85;;;4.88;;
71484;SDS011;59300;52.074;4.758;2022-09-09T06:05:41;13.82;;;5.20;;
71484;SDS011;59300;52.074;4.758;2022-09-09T06:08:44;16.92;;;4.93;;
71484;SDS011;59300;52.074;4.758;2022-09-09T06:11:49;8.93;;;4.60;;
71484;SDS011;59300;52.074;4.758;2022-09-09T06:14:51;13.48;;;4.65;;
71484;SDS011;59300;52.074;4.758;2022-09-09T06:17:54;12.82;;;4.15;;
71484;SDS011;59300;52.074;4.758;2022-09-09T06:21:06;8.75;;;3.70;;
71484;SDS011;59300;52.074;4.758;2022-09-09T06:24:13;13.15;;;4.25;;
71484;SDS011;59300;52.074;4.758;2022-09-09T06:27:15;13.30;;;4.40;;
71484;SDS011;59300;52.074;4.758;2022-09-09T06:30:17;12.35;;;4.00;;
71484;SDS011;59300;52.074;4.758;2022-09-09T06:33:19;10.13;;;3.47;;
71484;SDS011;59300;52.074;4.758;2022-09-09T06:36:22;10.70;;;3.28;;
71484;SDS011;59300;52.074;4.758;2022-09-09T06:39:26;17.45;;;3.90;;
71484;SDS011;59300;52.074;4.758;2022-09-09T06:42:30;12.30;;;3.43;;
71484;SDS011;59300;52.074;4.758;2022-09-09T06:45:57;11.82;;;3.50;;
71484;SDS011;59300;52.074;4.758;2022-09-09T06:49:07;10.95;;;3.53;;
71484;SDS011;59300;52.074;4.758;2022-09-09T06:52:10;9.25;;;3.58;;
71484;SDS011;59300;52.074;4.758;2022-09-09T06:55:13;15.88;;;4.20;;
71484;SDS011;59300;52.074;4.758;2022-09-09T06:58:15;12.68;;;4.30;;
71484;SDS011;59300;52.074;4.758;2022-09-09T07:01:19;11.70;;;4.18;;
71484;SDS011;59300;52.074;4.758;2022-09-09T07:04:25;11.52;;;4.20;;
71484;SDS011;59300;52.074;4.758;2022-09-09T07:07:31;13.05;;;4.53;;
71484;SDS011;59300;52.074;4.758;2022-09-09T07:10:33;11.35;;;4.05;;
71484;SDS011;59300;52.074;4.758;2022-09-09T07:13:35;8.55;;;4.50;;
71484;SDS011;59300;52.074;4.758;2022-09-09T07:16:42;15.57;;;5.00;;
71484;SDS011;59300;52.074;4.758;2022-09-09T07:19:45;16.60;;;5.07;;
71484;SDS011;59300;52.074;4.758;2022-09-09T07:22:49;13.75;;;4.78;;
71484;SDS011;59300;52.074;4.758;2022-09-09T07:25:51;12.27;;;4.55;;
71484;SDS011;59300;52.074;4.758;2022-09-09T07:28:54;10.98;;;4.28;;
71484;SDS011;59300;52.074;4.758;2022-09-09T07:31:57;11.10;;;4.17;;
71484;SDS011;59300;52.074;4.758;2022-09-09T07:35:04;16.15;;;5.05;;
71484;SDS011;59300;52.074;4.758;2022-09-09T07:38:07;11.07;;;4.85;;
71484;SDS011;59300;52.074;4.758;2022-09-09T07:41:10;12.10;;;5.15;;
71484;SDS011;59300;52.074;4.758;2022-09-09T07:44:20;13.20;;;4.65;;
71484;SDS011;59300;52.074;4.758;2022-09-09T07:47:35;12.57;;;4.47;;
71484;SDS011;59300;52.074;4.758;2022-09-09T07:50:37;11.52;;;4.90;;
71484;SDS011;59300;52.074;4.758;2022-09-09T07:53:39;9.93;;;4.60;;
71484;SDS011;59300;52.074;4.758;2022-09-09T07:56:41;10.90;;;4.60;;
71484;SDS011;59300;52.074;4.758;2022-09-09T07:59:45;11.85;;;4.45;;
71484;SDS011;59300;52.074;4.758;2022-09-09T08:02:48;13.07;;;5.20;;
71484;SDS011;59300;52.074;4.758;2022-09-09T08:05:50;10.48;;;4.65;;
71484;SDS011;59300;52.074;4.758;2022-09-09T08:08:52;13.45;;;4.72;;
71484;SDS011;59300;52.074;4.758;2022-09-09T08:11:56;8.37;;;4.90;;
71484;SDS011;59300;52.074;4.758;2022-09-09T08:14:59;12.05;;;5.03;;
71484;SDS011;59300;52.074;4.758;2022-09-09T08:18:07;12.32;;;5.20;;
71484;SDS011;59300;52.074;4.758;2022-09-09T08:21:13;11.18;;;5.40;;
71484;SDS011;59300;52.074;4.758;2022-09-09T08:24:20;12.13;;;5.18;;
71484;SDS011;59300;52.074;4.758;2022-09-09T08:30:27;10.77;;;4.60;;
71484;SDS011;59300;52.074;4.758;2022-09-09T08:33:29;12.73;;;4.90;;
71484;SDS011;59300;52.074;4.758;2022-09-09T08:36:37;10.48;;;4.60;;
71484;SDS011;59300;52.074;4.758;2022-09-09T08:39:41;11.70;;;4.85;;
71484;SDS011;59300;52.074;4.758;2022-09-09T08:42:45;10.23;;;4.65;;
71484;SDS011;59300;52.074;4.758;2022-09-09T08:46:09;13.50;;;4.50;;
71484;SDS011;59300;52.074;4.758;2022-09-09T08:52:55;12.80;;;4.50;;
71484;SDS011;59300;52.074;4.758;2022-09-09T08:56:08;14.02;;;4.38;;
71484;SDS011;59300;52.074;4.758;2022-09-09T08:59:19;13.45;;;3.67;;
71484;SDS011;59300;52.074;4.758;2022-09-09T09:02:23;7.90;;;3.35;;
71484;SDS011;59300;52.074;4.758;2022-09-09T09:05:44;11.48;;;3.65;;
71484;SDS011;59300;52.074;4.758;2022-09-09T09:12:29;14.80;;;3.60;;
71484;SDS011;59300;52.074;4.758;2022-09-09T09:15:37;7.88;;;3.63;;
71484;SDS011;59300;52.074;4.758;2022-09-09T09:18:42;11.98;;;4.25;;
71484;SDS011;59300;52.074;4.758;2022-09-09T09:21:49;13.43;;;4.88;;
71484;SDS011;59300;52.074;4.758;2022-09-09T09:25:03;11.98;;;4.72;;
71484;SDS011;59300;52.074;4.758;2022-09-09T09:28:13;10.90;;;4.05;;
71484;SDS011;59300;52.074;4.758;2022-09-09T09:31:21;13.80;;;4.63;;
71484;SDS011;59300;52.074;4.758;2022-09-09T09:34:23;11.73;;;4.45;;
71484;SDS011;59300;52.074;4.758;2022-09-09T09:37:28;11.55;;;4.15;;
71484;SDS011;59300;52.074;4.758;2022-09-09T09:40:37;11.60;;;4.00;;
71484;SDS011;59300;52.074;4.758;2022-09-09T09:43:53;10.30;;;3.83;;
71484;SDS011;59300;52.074;4.758;2022-09-09T09:50:54;9.38;;;4.15;;
71484;SDS011;59300;52.074;4.758;2022-09-09T09:57:17;11.20;;;4.00;;
71484;SDS011;59300;52.074;4.758;2022-09-09T10:00:24;9.55;;;3.90;;
71484;SDS011;59300;52.074;4.758;2022-09-09T10:03:37;9.23;;;4.32;;
71484;SDS011;59300;52.074;4.758;2022-09-09T10:06:39;9.55;;;3.80;;
71484;SDS011;59300;52.074;4.758;2022-09-09T10:09:41;10.50;;;3.67;;
71484;SDS011;59300;52.074;4.758;2022-09-09T10:16:07;13.35;;;3.42;;
71484;SDS011;59300;52.074;4.758;2022-09-09T10:19:34;6.80;;;2.97;;
71484;SDS011;59300;52.074;4.758;2022-09-09T10:22:38;10.93;;;2.92;;
71484;SDS011;59300;52.074;4.758;2022-09-09T10:29:29;9.70;;;3.17;;
71484;SDS011;59300;52.074;4.758;2022-09-09T10:32:50;10.50;;;2.45;;
71484;SDS011;59300;52.074;4.758;2022-09-09T10:36:13;9.07;;;2.60;;
71484;SDS011;59300;52.074;4.758;2022-09-09T10:42:43;7.38;;;2.88;;
71484;SDS011;59300;52.074;4.758;2022-09-09T10:49:25;6.78;;;2.63;;
71484;SDS011;59300;52.074;4.758;2022-09-09T10:56:25;6.60;;;2.75;;
71484;SDS011;59300;52.074;4.758;2022-09-09T11:02:35;7.28;;;2.85;;
71484;SDS011;59300;52.074;4.758;2022-09-09T11:05:42;5.55;;;2.80;;
71484;SDS011;59300;52.074;4.758;2022-09-09T11:08:45;6.72;;;2.50;;
71484;SDS011;59300;52.074;4.758;2022-09-09T11:11:55;7.03;;;2.38;;
71484;SDS011;59300;52.074;4.758;2022-09-09T11:15:04;7.43;;;2.42;;
71484;SDS011;59300;52.074;4.758;2022-09-09T11:18:12;7.63;;;2.42;;
71484;SDS011;59300;52.074;4.758;2022-09-09T11:21:24;11.27;;;2.65;;
71484;SDS011;59300;52.074;4.758;2022-09-09T11:24:40;3.85;;;1.83;;
71484;SDS011;59300;52.074;4.758;2022-09-09T11:38:45;3.90;;;2.22;;
71484;SDS011;59300;52.074;4.758;2022-09-09T11:42:05;5.25;;;2.30;;
71484;SDS011;59300;52.074;4.758;2022-09-09T11:45:28;4.75;;;2.47;;
71484;SDS011;59300;52.074;4.758;2022-09-09T11:48:35;8.70;;;2.90;;
71484;SDS011;59300;52.074;4.758;2022-09-09T11:51:41;6.95;;;3.10;;
71484;SDS011;59300;52.074;4.758;2022-09-09T11:54:47;7.30;;;3.00;;
71484;SDS011;59300;52.074;4.758;2022-09-09T11:57:56;6.68;;;3.13;;
71484;SDS011;59300;52.074;4.758;2022-09-09T12:01:00;7.60;;;3.20;;
71484;SDS011;59300;52.074;4.758;2022-09-09T12:13:34;13.63;;;4.97;;
71484;SDS011;59300;52.074;4.758;2022-09-09T12:16:36;9.65;;;6.07;;
71484;SDS011;59300;52.074;4.758;2022-09-09T12:19:39;12.80;;;6.22;;
71484;SDS011;59300;52.074;4.758;2022-09-09T12:22:45;12.15;;;6.68;;
71484;SDS011;59300;52.074;4.758;2022-09-09T12:32:22;11.25;;;8.02;;
71484;SDS011;59300;52.074;4.758;2022-09-09T12:35:26;11.43;;;7.60;;
71484;SDS011;59300;52.074;4.758;2022-09-09T12:41:40;14.85;;;8.13;;
71484;SDS011;59300;52.074;4.758;2022-09-09T12:44:58;13.90;;;8.00;;
71484;SDS011;59300;52.074;4.758;2022-09-09T12:48:20;18.50;;;9.35;;
71484;SDS011;59300;52.074;4.758;2022-09-09T12:51:26;31.40;;;11.45;;
71484;SDS011;59300;52.074;4.758;2022-09-09T12:54:34;20.73;;;9.68;;
71484;SDS011;59300;52.074;4.758;2022-09-09T12:57:39;20.67;;;10.27;;
71484;SDS011;59300;52.074;4.758;2022-09-09T13:00:48;15.38;;;8.73;;
71484;SDS011;59300;52.074;4.758;2022-09-09T13:03:51;19.42;;;9.48;;
71484;SDS011;59300;52.074;4.758;2022-09-09T13:06:53;13.32;;;7.45;;
71484;SDS011;59300;52.074;4.758;2022-09-09T13:10:09;9.75;;;5.25;;
71484;SDS011;59300;52.074;4.758;2022-09-09T13:16:54;10.55;;;5.43;;
71484;SDS011;59300;52.074;4.758;2022-09-09T13:20:14;11.65;;;4.97;;
71484;SDS011;59300;52.074;4.758;2022-09-09T13:23:19;10.15;;;4.43;;
71484;SDS011;59300;52.074;4.758;2022-09-09T13:29:26;10.90;;;4.50;;
71484;SDS011;59300;52.074;4.758;2022-09-09T13:32:28;8.68;;;5.13;;
71484;SDS011;59300;52.074;4.758;2022-09-09T13:35:30;9.52;;;5.32;;
71484;SDS011;59300;52.074;4.758;2022-09-09T13:38:37;8.00;;;4.10;;
71484;SDS011;59300;52.074;4.758;2022-09-09T13:41:54;5.90;;;3.80;;
71484;SDS011;59300;52.074;4.758;2022-09-09T13:44:56;11.48;;;4.35;;
71484;SDS011;59300;52.074;4.758;2022-09-09T13:48:08;6.50;;;3.35;;
71484;SDS011;59300;52.074;4.758;2022-09-09T13:51:22;6.63;;;3.60;;
71484;SDS011;59300;52.074;4.758;2022-09-09T13:54:35;6.70;;;3.37;;
71484;SDS011;59300;52.074;4.758;2022-09-09T13:57:37;6.15;;;2.90;;
71484;SDS011;59300;52.074;4.758;2022-09-09T14:00:39;6.20;;;2.95;;
71484;SDS011;59300;52.074;4.758;2022-09-09T14:03:41;4.75;;;2.70;;
71484;SDS011;59300;52.074;4.758;2022-09-09T14:06:43;9.50;;;2.75;;
71484;SDS011;59300;52.074;4.758;2022-09-09T14:09:45;6.93;;;2.70;;
71484;SDS011;59300;52.074;4.758;2022-09-09T14:12:47;5.55;;;2.25;;
71484;SDS011;59300;52.074;4.758;2022-09-09T14:15:49;6.30;;;2.28;;
71484;SDS011;59300;52.074;4.758;2022-09-09T14:18:51;7.43;;;2.22;;
71484;SDS011;59300;52.074;4.758;2022-09-09T14:21:53;4.85;;;2.20;;
71484;SDS011;59300;52.074;4.758;2022-09-09T14:24:55;9.20;;;2.85;;
71484;SDS011;59300;52.074;4.758;2022-09-09T14:27:57;6.68;;;2.47;;
71484;SDS011;59300;52.074;4.758;2022-09-09T14:31:01;5.43;;;2.30;;
71484;SDS011;59300;52.074;4.758;2022-09-09T14:34:05;6.18;;;2.42;;
71484;SDS011;59300;52.074;4.758;2022-09-09T14:37:07;6.47;;;2.38;;
71484;SDS011;59300;52.074;4.758;2022-09-09T14:40:09;6.18;;;2.50;;
71484;SDS011;59300;52.074;4.758;2022-09-09T14:43:11;5.50;;;2.30;;
71484;SDS011;59300;52.074;4.758;2022-09-09T14:46:15;6.30;;;2.97;;
71484;SDS011;59300;52.074;4.758;2022-09-09T14:49:18;7.45;;;2.90;;
71484;SDS011;59300;52.074;4.758;2022-09-09T14:52:20;7.03;;;3.05;;
71484;SDS011;59300;52.074;4.758;2022-09-09T14:55:22;6.20;;;2.97;;
71484;SDS011;59300;52.074;4.758;2022-09-09T14:58:24;9.23;;;3.80;;
71484;SDS011;59300;52.074;4.758;2022-09-09T15:01:31;8.90;;;3.30;;
71484;SDS011;59300;52.074;4.758;2022-09-09T15:04:33;12.55;;;4.05;;
71484;SDS011;59300;52.074;4.758;2022-09-09T15:07:35;5.93;;;3.10;;
71484;SDS011;59300;52.074;4.758;2022-09-09T15:10:37;10.63;;;3.55;;
71484;SDS011;59300;52.074;4.758;2022-09-09T15:13:44;7.65;;;2.88;;
71484;SDS011;59300;52.074;4.758;2022-09-09T15:16:48;5.55;;;2.67;;
71484;SDS011;59300;52.074;4.758;2022-09-09T15:19:50;8.52;;;2.72;;
71484;SDS011;59300;52.074;4.758;2022-09-09T15:22:52;6.75;;;2.20;;
71484;SDS011;59300;52.074;4.758;2022-09-09T15:25:55;6.43;;;1.80;;
71484;SDS011;59300;52.074;4.758;2022-09-09T15:28:59;7.30;;;2.20;;
71484;SDS011;59300;52.074;4.758;2022-09-09T15:32:02;5.72;;;1.80;;
71484;SDS011;59300;52.074;4.758;2022-09-09T15:35:04;5.25;;;1.80;;
71484;SDS011;59300;52.074;4.758;2022-09-09T15:38:06;12.02;;;1.80;;
71484;SDS011;59300;52.074;4.758;2022-09-09T15:41:08;5.07;;;1.60;;
71484;SDS011;59300;52.074;4.758;2022-09-09T15:44:11;7.22;;;1.80;;
71484;SDS011;59300;52.074;4.758;2022-09-09T15:47:13;6.07;;;1.75;;
71484;SDS011;59300;52.074;4.758;2022-09-09T15:50:15;5.70;;;2.03;;
71484;SDS011;59300;52.074;4.758;2022-09-09T15:53:17;5.18;;;1.75;;
71484;SDS011;59300;52.074;4.758;2022-09-09T15:56:22;5.93;;;1.90;;
71484;SDS011;59300;52.074;4.758;2022-09-09T15:59:25;5.53;;;1.50;;
71484;SDS011;59300;52.074;4.758;2022-09-09T16:02:29;6.07;;;2.10;;
71484;SDS011;59300;52.074;4.758;2022-09-09T16:05:32;7.53;;;2.08;;
71484;SDS011;59300;52.074;4.758;2022-09-09T16:08:35;7.70;;;2.38;;
71484;SDS011;59300;52.074;4.758;2022-09-09T16:11:38;7.45;;;2.53;;
71484;SDS011;59300;52.074;4.758;2022-09-09T16:14:40;5.65;;;2.47;;
71484;SDS011;59300;52.074;4.758;2022-09-09T16:17:42;8.23;;;2.97;;
71484;SDS011;59300;52.074;4.758;2022-09-09T16:20:52;7.82;;;3.63;;
71484;SDS011;59300;52.074;4.758;2022-09-09T16:23:56;8.23;;;3.72;;
71484;SDS011;59300;52.074;4.758;2022-09-09T16:26:59;5.55;;;3.90;;
71484;SDS011;59300;52.074;4.758;2022-09-09T16:30:01;7.65;;;3.85;;
71484;SDS011;59300;52.074;4.758;2022-09-09T16:33:03;8.35;;;4.10;;
71484;SDS011;59300;52.074;4.758;2022-09-09T16:36:12;10.18;;;3.92;;
71484;SDS011;59300;52.074;4.758;2022-09-09T16:39:17;11.52;;;4.60;;
71484;SDS011;59300;52.074;4.758;2022-09-09T16:42:20;9.90;;;4.63;;
71484;SDS011;59300;52.074;4.758;2022-09-09T16:45:22;9.27;;;5.05;;
71484;SDS011;59300;52.074;4.758;2022-09-09T16:48:24;10.25;;;5.38;;
71484;SDS011;59300;52.074;4.758;2022-09-09T16:51:28;12.32;;;6.18;;
71484;SDS011;59300;52.074;4.758;2022-09-09T16:54:39;11.75;;;5.80;;
71484;SDS011;59300;52.074;4.758;2022-09-09T16:57:41;12.15;;;6.65;;
71484;SDS011;59300;52.074;4.758;2022-09-09T17:00:43;11.02;;;5.90;;
71484;SDS011;59300;52.074;4.758;2022-09-09T17:03:45;12.32;;;6.40;;
71484;SDS011;59300;52.074;4.758;2022-09-09T17:06:48;12.68;;;6.63;;
71484;SDS011;59300;52.074;4.758;2022-09-09T17:09:51;11.23;;;7.50;;
71484;SDS011;59300;52.074;4.758;2022-09-09T17:12:53;16.98;;;8.90;;
71484;SDS011;59300;52.074;4.758;2022-09-09T17:15:55;13.27;;;8.13;;
71484;SDS011;59300;52.074;4.758;2022-09-09T17:19:03;12.93;;;7.78;;
71484;SDS011;59300;52.074;4.758;2022-09-09T17:22:05;11.23;;;7.53;;
71484;SDS011;59300;52.074;4.758;2022-09-09T17:25:18;12.07;;;6.95;;
71484;SDS011;59300;52.074;4.758;2022-09-09T17:28:20;11.00;;;6.63;;
71484;SDS011;59300;52.074;4.758;2022-09-09T17:31:22;13.75;;;5.47;;
71484;SDS011;59300;52.074;4.758;2022-09-09T17:34:24;13.02;;;5.45;;
71484;SDS011;59300;52.074;4.758;2022-09-09T17:37:26;8.43;;;4.57;;
71484;SDS011;59300;52.074;4.758;2022-09-09T17:40:28;8.30;;;5.18;;
71484;SDS011;59300;52.074;4.758;2022-09-09T17:43:30;9.48;;;4.57;;
71484;SDS011;59300;52.074;4.758;2022-09-09T17:46:33;9.52;;;5.00;;
71484;SDS011;59300;52.074;4.758;2022-09-09T17:49:37;8.77;;;4.57;;
71484;SDS011;59300;52.074;4.758;2022-09-09T17:52:39;11.75;;;5.07;;
71484;SDS011;59300;52.074;4.758;2022-09-09T17:55:41;10.93;;;5.95;;
71484;SDS011;59300;52.074;4.758;2022-09-09T17:58:43;10.65;;;6.00;;
71484;SDS011;59300;52.074;4.758;2022-09-09T18:01:46;13.43;;;6.18;;
71484;SDS011;59300;52.074;4.758;2022-09-09T18:04:49;13.20;;;6.57;;
71484;SDS011;59300;52.074;4.758;2022-09-09T18:07:51;9.73;;;6.15;;
71484;SDS011;59300;52.074;4.758;2022-09-09T18:10:53;12.77;;;6.25;;
71484;SDS011;59300;52.074;4.758;2022-09-09T18:13:56;13.82;;;6.57;;
71484;SDS011;59300;52.074;4.758;2022-09-09T18:17:00;12.98;;;5.97;;
71484;SDS011;59300;52.074;4.758;2022-09-09T18:20:03;15.97;;;6.87;;
71484;SDS011;59300;52.074;4.758;2022-09-09T18:23:06;10.60;;;5.70;;
71484;SDS011;59300;52.074;4.758;2022-09-09T18:26:08;14.63;;;5.38;;
71484;SDS011;59300;52.074;4.758;2022-09-09T18:29:12;12.15;;;5.38;;
71484;SDS011;59300;52.074;4.758;2022-09-09T18:32:16;10.40;;;6.10;;
71484;SDS011;59300;52.074;4.758;2022-09-09T18:35:18;11.13;;;5.18;;
71484;SDS011;59300;52.074;4.758;2022-09-09T18:38:20;14.07;;;5.05;;
71484;SDS011;59300;52.074;4.758;2022-09-09T18:41:23;13.05;;;4.90;;
71484;SDS011;59300;52.074;4.758;2022-09-09T18:44:29;9.73;;;4.68;;
71484;SDS011;59300;52.074;4.758;2022-09-09T18:47:32;8.45;;;4.63;;
71484;SDS011;59300;52.074;4.758;2022-09-09T18:50:34;10.27;;;4.40;;
71484;SDS011;59300;52.074;4.758;2022-09-09T18:53:37;12.18;;;4.22;;
71484;SDS011;59300;52.074;4.758;2022-09-09T18:56:39;12.20;;;4.30;;
71484;SDS011;59300;52.074;4.758;2022-09-09T18:59:41;12.38;;;4.20;;
71484;SDS011;59300;52.074;4.758;2022-09-09T19:02:43;7.70;;;3.60;;
71484;SDS011;59300;52.074;4.758;2022-09-09T19:05:45;9.10;;;3.67;;
71484;SDS011;59300;52.074;4.758;2022-09-09T19:08:47;9.95;;;3.65;;
71484;SDS011;59300;52.074;4.758;2022-09-09T19:11:56;10.05;;;3.70;;
71484;SDS011;59300;52.074;4.758;2022-09-09T19:15:02;9.00;;;3.83;;
71484;SDS011;59300;52.074;4.758;2022-09-09T19:18:04;8.45;;;4.03;;
71484;SDS011;59300;52.074;4.758;2022-09-09T19:21:27;12.10;;;3.88;;
71484;SDS011;59300;52.074;4.758;2022-09-09T19:24:31;9.02;;;3.72;;
71484;SDS011;59300;52.074;4.758;2022-09-09T19:27:34;10.50;;;3.92;;
71484;SDS011;59300;52.074;4.758;2022-09-09T19:30:36;7.18;;;3.90;;
71484;SDS011;59300;52.074;4.758;2022-09-09T19:33:38;11.05;;;4.05;;
71484;SDS011;59300;52.074;4.758;2022-09-09T19:36:40;12.38;;;4.60;;
71484;SDS011;59300;52.074;4.758;2022-09-09T19:39:47;10.82;;;4.60;;
71484;SDS011;59300;52.074;4.758;2022-09-09T19:42:49;13.13;;;4.25;;
71484;SDS011;59300;52.074;4.758;2022-09-09T19:45:57;9.98;;;4.55;;
71484;SDS011;59300;52.074;4.758;2022-09-09T19:49:01;10.82;;;4.50;;
71484;SDS011;59300;52.074;4.758;2022-09-09T19:52:04;8.38;;;4.85;;
71484;SDS011;59300;52.074;4.758;2022-09-09T19:55:06;9.80;;;5.35;;
71484;SDS011;59300;52.074;4.758;2022-09-09T19:58:08;17.02;;;5.28;;
71484;SDS011;59300;52.074;4.758;2022-09-09T20:01:11;17.00;;;6.53;;
71484;SDS011;59300;52.074;4.758;2022-09-09T20:04:15;15.15;;;6.22;;
71484;SDS011;59300;52.074;4.758;2022-09-09T20:07:17;12.13;;;6.22;;
71484;SDS011;59300;52.074;4.758;2022-09-09T20:10:19;15.60;;;6.03;;
71484;SDS011;59300;52.074;4.758;2022-09-09T20:13:21;14.82;;;6.28;;
71484;SDS011;59300;52.074;4.758;2022-09-09T20:16:25;15.63;;;5.82;;